Decoded Metar for OEDF (DAMMAM in SAUDI ARABIA) (IATA:DMM) | Meteo·Mobile Aviation Weather
aviador You're here:

OEDF Decoded Metar

DAMMAM in SAUDI ARABIA
Report Time2018-10-23 09:00:00
UTC Time2018-10-23 09:45:12
Flight Rules vfr VFR
Wind300° at 03 kt
W.Decomp.*RWY 34: 2.2 kt HW 2 kt LCW
W.Rank300° ranks 1
Current wind is below 300° avg. (8.9)
Visibility9999 m
Phenomena:N/A
Clouds:N/A
Expected CloudBase > 6,800 ft AGL from Temp-Dew spread
CeilingNone
Temp33°C (ISA +18)
Dew Point16°C (36% RH)
Heat Index33.0°C
QNH1015 hPa
Density Alt2,316 ft
Elevation72 ft
Report Wrong Elevation
Raw Report
METAR OEDF 230900Z 30003KT CAVOK 33/16 Q1015 NOSIG=

Extra information for OEDF:More info

Metar Taf Metar & Taf Last 4 Metars F.Rules Stats Wind Profile Meteogram Temp Stats Airport Information Weather charts Add Link Nearby VenuesMetar ALERT Operation Metar Decoded Social comments